»·PEaware :: N968L KLAS-KLAX

N968L :: KLAS-KLAX

FLIGHT INFORMATION

Flight Status: Arrived
Operator: Privately registered:
United States
More flights under this callsign
Pilot: Leonard B. (9579)
Aircraft: Unknown
(VLJ)
More flights by this aircraft type
Origin: KLAS McCarran Intl
United States
Destination: KLAX Los Angeles Intl
United States
More flights between these airports :: More routes between these airports
Route: +
File this flight plan on PilotEdge
Remarks: ff
Altitude:
(Current/Filed)
16,500ft
Speed:
(Current/Filed)
0kts
Departed: 03-Dec-17 04:17 PM
Arrived: 03-Dec-17 05:24 PM
Distance/Time
Traveled:
205nm/1:06
Distance/Time
To Go:
Arrived

Flight Plot

Page will automatically refresh every two minutes.


Map Options




Map Legend


Flown Route
Filed Route
Departure Airport
Arrival Airport
Navaid (VOR, NDB)
Fix

Horizontal Profiles

Position Reports

Time Latitude Longitude Heading Altitude Ground
Speed
03-Dec-17 16:08 36.091845 -115.153961 89 2089ft 0kts
03-Dec-17 16:09 36.091845 -115.153961 89 2089ft 0kts
03-Dec-17 16:10 36.091845 -115.153961 89 2089ft 0kts
03-Dec-17 16:11 36.091845 -115.153961 89 2089ft 0kts
03-Dec-17 16:12 36.091845 -115.153961 89 2089ft 0kts
03-Dec-17 16:13 36.091845 -115.153961 89 2089ft 0kts
03-Dec-17 16:14 36.091845 -115.153961 89 2089ft 0kts
03-Dec-17 16:15 36.091845 -115.153961 89 2089ft 0kts
03-Dec-17 16:16 36.091873 -115.153923 27 2089ft 1kts
03-Dec-17 16:17 36.091939 -115.153934 338 2089ft 1kts
03-Dec-17 16:18 36.093027 -115.154423 6 2089ft 9kts
03-Dec-17 16:19 36.096597 -115.152475 23 2076ft 14kts
03-Dec-17 16:20 36.098007 -115.152504 297 2073ft 0kts
03-Dec-17 16:21 36.098011 -115.152513 296 2073ft 0kts
03-Dec-17 16:22 36.095629 -115.155239 204 2086ft 69kts
03-Dec-17 16:23 36.057359 -115.173498 185 3380ft 190kts
03-Dec-17 16:24 36.008644 -115.177596 189 5567ft 170kts
03-Dec-17 16:25 35.969452 -115.192937 237 6171ft 159kts
03-Dec-17 16:26 35.953468 -115.244159 249 7247ft 161kts
03-Dec-17 16:27 35.949193 -115.259581 249 7733ft 176kts
03-Dec-17 16:28 35.938781 -115.298653 251 9224ft 188kts
03-Dec-17 16:29 35.925242 -115.357136 258 11559ft 186kts
03-Dec-17 16:30 35.914282 -115.417673 263 13926ft 177kts
03-Dec-17 16:31 35.904583 -115.475191 237 16087ft 178kts
03-Dec-17 16:32 35.861475 -115.522633 234 16495ft 243kts
03-Dec-17 16:33 35.814248 -115.592520 237 16486ft 282kts
03-Dec-17 16:34 35.764270 -115.670315 236 16541ft 296kts
03-Dec-17 16:35 35.712504 -115.751168 236 16543ft 304kts
03-Dec-17 16:36 35.660073 -115.832904 235 16552ft 305kts
03-Dec-17 16:37 35.607407 -115.914743 236 16551ft 306kts
03-Dec-17 16:38 35.554483 -115.996872 236 16550ft 307kts
03-Dec-17 16:39 35.501508 -116.078886 236 16549ft 307kts
03-Dec-17 16:40 35.448532 -116.160711 236 16549ft 306kts
03-Dec-17 16:41 35.395647 -116.242196 236 16548ft 306kts
03-Dec-17 16:42 35.342579 -116.323775 236 16547ft 306kts
03-Dec-17 16:43 35.289656 -116.404883 236 16547ft 305kts
03-Dec-17 16:44 35.236645 -116.486047 236 16546ft 306kts
03-Dec-17 16:45 35.183399 -116.567334 236 16545ft 306kts
03-Dec-17 16:46 35.133662 -116.643050 236 16541ft 272kts
03-Dec-17 16:47 35.087383 -116.713401 236 16552ft 261kts
03-Dec-17 16:48 35.049963 -116.770182 236 16552ft 257kts
03-Dec-17 16:49 34.997916 -116.848937 236 16551ft 254kts
03-Dec-17 16:50 34.953001 -116.916872 236 16241ft 263kts
03-Dec-17 16:51 34.906560 -116.986908 236 15755ft 269kts
03-Dec-17 16:52 34.861277 -117.055180 236 15274ft 272kts
03-Dec-17 16:53 34.821515 -117.114913 236 14852ft 274kts
03-Dec-17 16:54 34.773774 -117.186502 236 14346ft 275kts
03-Dec-17 16:55 34.717445 -117.270787 236 13748ft 277kts
03-Dec-17 16:56 34.676858 -117.331436 235 13319ft 278kts
03-Dec-17 16:57 34.627935 -117.404285 235 12800ft 279kts
03-Dec-17 16:58 34.571048 -117.488875 235 12470ft 273kts
03-Dec-17 16:59 34.531412 -117.547691 235 12471ft 268kts
03-Dec-17 17:00 34.484703 -117.616867 235 12468ft 257kts
03-Dec-17 17:01 34.443752 -117.677358 236 12473ft 218kts
03-Dec-17 17:02 34.407351 -117.731104 236 12475ft 201kts
03-Dec-17 17:03 34.373386 -117.781185 236 12475ft 194kts
03-Dec-17 17:04 34.340041 -117.830346 233 12475ft 193kts
03-Dec-17 17:05 34.306206 -117.880013 233 12475ft 191kts
03-Dec-17 17:06 34.272153 -117.929997 233 12228ft 202kts
03-Dec-17 17:07 34.236415 -117.982377 233 11849ft 209kts
03-Dec-17 17:08 34.197466 -118.039430 232 11496ft 258kts
03-Dec-17 17:09 34.147947 -118.110492 235 11342ft 302kts
03-Dec-17 17:10 34.098704 -118.179137 195 9408ft 278kts
03-Dec-17 17:11 34.087642 -118.117721 47 6333ft 258kts
03-Dec-17 17:12 34.129120 -118.055750 55 4167ft 225kts
03-Dec-17 17:13 34.146472 -117.988290 89 2794ft 200kts
03-Dec-17 17:14 34.140457 -117.927573 93 2110ft 183kts
03-Dec-17 17:15 34.112827 -117.903935 232 2310ft 158kts
03-Dec-17 17:16 34.104530 -117.956975 281 2123ft 168kts
03-Dec-17 17:17 34.114683 -118.011068 284 2119ft 167kts
03-Dec-17 17:18 34.102363 -118.063265 240 1753ft 171kts
03-Dec-17 17:19 34.075770 -118.099338 227 1687ft 144kts
03-Dec-17 17:20 34.048825 -118.130098 222 1372ft 141kts
03-Dec-17 17:21 34.021533 -118.157916 225 1189ft 133kts
03-Dec-17 17:22 33.998008 -118.188978 232 1266ft 134kts
03-Dec-17 17:23 33.977728 -118.221571 233 1225ft 145kts
03-Dec-17 17:24 33.958453 -118.254258 235 1221ft 115kts
03-Dec-17 17:25 33.946972 -118.288139 259 828ft 110kts
03-Dec-17 17:26 33.942770 -118.326379 262 1019ft 118kts
03-Dec-17 17:27 33.939144 -118.364532 262 403ft 114kts
03-Dec-17 17:28 33.935878 -118.397400 263 107ft 50kts
03-Dec-17 17:29 33.934859 -118.402069 238 115ft 16kts

Navigation Log

Ident Type
1. KLAS Airport
2. KLAX Airport